Time;durP1;ratioP1;P1;durP2;ratioP2;P2;SDS_P1;SDS_P2;PMS_P1;PMS_P2;Temp;Humidity;BMP_temperature;BMP_pressure;BME280_temperature;BME280_humidity;BME280_pressure;Samples;Min_cycle;Max_cycle;Signal;HPM_P1;HPM_P2
2021/03/06 00:02:24;;;;;;;24.25;12.63;;;205.00;1740.80;;;;;;5089490;28;20021;-70
2021/03/06 00:04:50;;;;;;;21.35;11.98;;;205.00;1740.80;;;;;;5073716;28;20039;-71
2021/03/06 00:07:16;;;;;;;19.85;11.48;;;205.00;1740.80;;;;;;5073766;28;20057;-71
2021/03/06 00:09:41;;;;;;;21.20;11.38;;;204.90;1715.20;;;;;;5074112;28;20083;-71
2021/03/06 00:12:08;;;;;;;23.08;12.25;;;204.90;1715.20;;;;;;5072202;28;20047;-71
2021/03/06 00:14:34;;;;;;;23.60;12.40;;;204.90;1740.80;;;;;;5073560;28;20025;-71
2021/03/06 00:17:00;;;;;;;13.52;9.13;;;204.90;1740.80;;;;;;5089270;28;20534;-71
2021/03/06 00:19:27;;;;;;;16.27;10.80;;;204.80;1740.80;;;;;;5073736;28;20028;-71
2021/03/06 00:21:53;;;;;;;12.60;7.80;;;204.80;1740.80;;;;;;5073761;28;20025;-71
2021/03/06 00:24:18;;;;;;;11.77;8.85;;;204.90;1715.20;;;;;;5073616;28;20073;-71
2021/03/06 00:26:44;;;;;;;10.80;7.95;;;204.90;1689.60;;;;;;5073572;28;20525;-71
2021/03/06 00:29:10;;;;;;;10.70;7.55;;;204.90;1715.20;;;;;;5073532;28;20020;-71
2021/03/06 00:31:36;;;;;;;13.43;8.43;;;204.90;1689.60;;;;;;5073332;28;20389;-71
2021/03/06 00:34:04;;;;;;;12.60;8.45;;;204.80;1689.60;;;;;;5073320;28;20056;-71
2021/03/06 00:36:30;;;;;;;16.50;8.93;;;204.80;1689.60;;;;;;5073472;28;20052;-71
2021/03/06 00:38:56;;;;;;;16.83;10.40;;;204.80;1715.20;;;;;;5073375;28;20024;-71
2021/03/06 00:41:22;;;;;;;14.77;8.52;;;204.80;1689.60;;;;;;5073052;28;20140;-71
2021/03/06 00:43:47;;;;;;;12.18;7.82;;;180.10;1689.60;;;;;;5072939;28;20031;-71
2021/03/06 00:46:15;;;;;;;9.23;7.18;;;180.10;1689.60;;;;;;5073295;28;20035;-71
2021/03/06 00:48:40;;;;;;;11.70;7.70;;;180.10;1664.00;;;;;;5073091;28;20029;-71
2021/03/06 00:51:07;;;;;;;14.55;8.52;;;204.80;1664.00;;;;;;5073044;28;20035;-71
2021/03/06 00:53:34;;;;;;;17.23;9.73;;;180.10;1664.00;;;;;;5073230;28;20029;-71
2021/03/06 00:56:00;;;;;;;13.60;9.52;;;180.10;1664.00;;;;;;5072877;28;20087;-71
2021/03/06 00:58:26;;;;;;;14.73;10.05;;;180.10;1664.00;;;;;;5072898;28;20116;-71
2021/03/06 01:00:52;;;;;;;15.68;10.80;;;180.10;1638.40;;;;;;5072687;28;20473;-71
2021/03/06 01:03:18;;;;;;;12.30;8.40;;;180.10;1664.00;;;;;;5072290;28;20023;-71
2021/03/06 01:05:43;;;;;;;15.63;8.60;;;180.10;1638.40;;;;;;5072084;28;20036;-71
2021/03/06 01:08:09;;;;;;;16.33;8.60;;;180.10;1638.40;;;;;;5072579;28;20028;-71
2021/03/06 01:10:39;;;;;;;13.93;8.20;;;180.10;1638.40;;;;;;5072473;28;20048;-71
2021/03/06 01:13:06;;;;;;;14.95;9.40;;;180.10;1612.80;;;;;;5072192;28;20035;-71
2021/03/06 01:15:32;;;;;;;14.68;9.43;;;180.10;1612.80;;;;;;5072717;28;20046;-71
2021/03/06 01:17:58;;;;;;;16.35;10.40;;;180.10;1612.80;;;;;;5072820;28;20080;-71
2021/03/06 01:20:24;;;;;;;13.65;9.43;;;180.00;1638.40;;;;;;5073046;28;20029;-71
2021/03/06 01:22:51;;;;;;;15.10;9.05;;;180.00;1612.80;;;;;;5072697;28;20031;-71
2021/03/06 01:25:17;;;;;;;15.68;9.38;;;180.00;1638.40;;;;;;5072602;28;20028;-71
2021/03/06 01:27:43;;;;;;;13.20;9.25;;;180.10;1612.80;;;;;;5071287;28;20082;-71
2021/03/06 01:30:10;;;;;;;15.10;9.20;;;179.90;1638.40;;;;;;5072694;28;20078;-71
2021/03/06 01:32:36;;;;;;;13.13;8.88;;;179.90;1638.40;;;;;;5072452;28;20456;-71
2021/03/06 01:35:04;;;;;;;16.02;10.23;;;179.80;1638.40;;;;;;5072469;28;20048;-71
2021/03/06 01:37:30;;;;;;;13.07;9.30;;;179.80;1638.40;;;;;;5072503;28;20017;-71
2021/03/06 01:39:56;;;;;;;13.60;9.20;;;179.80;1638.40;;;;;;5072380;28;20031;-71
2021/03/06 01:42:22;;;;;;;15.20;9.15;;;179.80;1638.40;;;;;;5072457;28;20052;-71
2021/03/06 01:44:48;;;;;;;11.57;7.90;;;179.70;1638.40;;;;;;5088109;28;20112;-71
2021/03/06 01:47:14;;;;;;;15.88;9.40;;;179.70;1638.40;;;;;;5072391;28;20039;-70
2021/03/06 01:49:39;;;;;;;12.15;8.02;;;179.70;1638.40;;;;;;5072684;28;20032;-70
2021/03/06 01:52:05;;;;;;;13.23;9.02;;;179.70;1638.40;;;;;;5072535;28;20020;-70
2021/03/06 01:54:32;;;;;;;13.73;8.57;;;179.70;1638.40;;;;;;5072362;28;20024;-70
2021/03/06 01:56:58;;;;;;;11.20;7.55;;;179.60;1612.80;;;;;;5075530;28;20023;-71
2021/03/06 01:59:24;;;;;;;13.43;9.07;;;179.60;1638.40;;;;;;5092021;28;20024;-70
2021/03/06 02:01:50;;;;;;;13.55;8.98;;;179.60;1638.40;;;;;;5075120;28;20029;-70
2021/03/06 02:04:16;;;;;;;12.77;8.90;;;179.60;1638.40;;;;;;5076218;28;20032;-71
2021/03/06 02:06:41;;;;;;;13.68;9.30;;;179.60;1638.40;;;;;;5076265;28;20048;-70
2021/03/06 02:09:07;;;;;;;18.40;9.65;;;179.70;1638.40;;;;;;5076424;28;20425;-71
2021/03/06 02:12:11;;;;;;;14.60;9.45;;;179.70;1612.80;;;;;;5076401;28;20033;-70
2021/03/06 02:14:48;;;;;;;13.40;9.80;;;179.70;1612.80;;;;;;5076069;28;20101;-70
2021/03/06 02:17:31;;;;;;;16.17;9.70;;;179.70;1612.80;;;;;;5075970;28;20024;-70
2021/03/06 02:20:27;;;;;;;14.60;8.93;;;179.70;1612.80;;;;;;5075881;28;20549;-70
2021/03/06 02:23:29;;;;;;;16.10;9.13;;;179.70;1612.80;;;;;;5075926;28;20063;-70
2021/03/06 02:26:25;;;;;;;16.80;10.35;;;179.60;1612.80;;;;;;5075994;28;20474;-70
2021/03/06 02:29:22;;;;;;;13.57;9.25;;;179.60;1612.80;;;;;;5076016;28;20028;-71
2021/03/06 02:31:49;;;;;;;14.27;9.95;;;179.50;1612.80;;;;;;5075981;28;20025;-70
2021/03/06 02:34:23;;;;;;;15.90;9.45;;;179.60;1612.80;;;;;;5075995;28;20768;-71
2021/03/06 02:37:01;;;;;;;14.95;10.55;;;179.60;1612.80;;;;;;5091504;28;20028;-70
2021/03/06 02:39:27;;;;;;;15.63;9.15;;;179.50;1612.80;;;;;;5075721;28;20534;-70
2021/03/06 02:41:56;;;;;;;15.50;9.68;;;179.50;1612.80;;;;;;5074478;28;20086;-70
2021/03/06 02:44:25;;;;;;;16.42;9.98;;;179.60;1612.80;;;;;;5075693;28;20511;-70
2021/03/06 02:46:51;;;;;;;14.23;9.93;;;179.50;1612.80;;;;;;5075601;28;20029;-70
2021/03/06 02:49:17;;;;;;;19.42;10.85;;;179.50;1612.80;;;;;;5091186;28;20031;-71
2021/03/06 02:51:44;;;;;;;20.55;10.98;;;179.60;1587.20;;;;;;5075324;28;20373;-71
2021/03/06 02:54:11;;;;;;;15.98;9.63;;;179.60;1587.20;;;;;;5075305;28;20353;-70
2021/03/06 02:56:37;;;;;;;21.38;11.02;;;179.60;1561.60;;;;;;5075593;28;20055;-70
2021/03/06 02:59:28;;;;;;;13.55;9.15;;;179.60;1587.20;;;;;;5075272;28;20054;-69
2021/03/06 03:02:17;;;;;;;19.25;10.77;;;179.50;1587.20;;;;;;5075041;28;20024;-70
2021/03/06 03:05:14;;;;;;;17.77;10.70;;;179.40;1587.20;;;;;;5075291;28;20048;-71
2021/03/06 03:07:50;;;;;;;24.50;12.32;;;179.40;1587.20;;;;;;5067251;28;20174;-70
2021/03/06 03:10:17;;;;;;;20.83;10.38;;;179.40;1587.20;;;;;;5073928;28;20043;-70
2021/03/06 03:13:19;;;;;;;24.02;11.38;;;179.40;1561.60;;;;;;5075019;28;20021;-70
2021/03/06 03:15:49;;;;;;;20.80;10.82;;;179.40;1561.60;;;;;;5061735;28;20505;-70
2021/03/06 03:18:29;;;;;;;19.90;12.77;;;179.40;1561.60;;;;;;5090670;28;20500;-70
2021/03/06 03:20:57;;;;;;;21.20;11.05;;;179.50;1561.60;;;;;;5074885;28;20028;-70
2021/03/06 03:23:32;;;;;;;29.63;13.05;;;179.50;1561.60;;;;;;5074891;28;20032;-70
2021/03/06 03:26:01;;;;;;;15.35;9.43;;;179.40;1561.60;;;;;;5074849;28;20541;-70
2021/03/06 03:28:30;;;;;;;17.27;9.75;;;179.40;1561.60;;;;;;5074741;28;20036;-70
2021/03/06 03:31:00;;;;;;;14.65;9.02;;;179.40;1561.60;;;;;;5073537;28;20033;-70
2021/03/06 03:33:28;;;;;;;13.32;8.02;;;179.40;1561.60;;;;;;5090186;28;20501;-70
2021/03/06 03:35:54;;;;;;;16.88;8.77;;;179.30;1561.60;;;;;;5074587;28;20069;-70
2021/03/06 03:38:22;;;;;;;8.48;6.57;;;179.30;1587.20;;;;;;5074316;28;20138;-70
2021/03/06 03:40:48;;;;;;;13.32;7.18;;;179.40;1561.60;;;;;;5074656;28;20047;-71
2021/03/06 03:43:14;;;;;;;10.48;7.22;;;179.40;1587.20;;;;;;5074692;28;20461;-71
2021/03/06 03:45:40;;;;;;;12.65;6.95;;;179.30;1561.60;;;;;;5074461;28;20036;-70
2021/03/06 03:48:07;;;;;;;9.25;6.35;;;179.30;1561.60;;;;;;5074628;28;20024;-71
2021/03/06 03:50:33;;;;;;;13.48;8.35;;;179.20;1587.20;;;;;;5073298;28;20040;-71
2021/03/06 03:52:59;;;;;;;12.88;8.77;;;179.20;1561.60;;;;;;5073118;28;20044;-70
2021/03/06 03:55:25;;;;;;;18.98;10.15;;;179.20;1561.60;;;;;;5072593;28;20056;-70
2021/03/06 03:57:51;;;;;;;15.93;10.25;;;179.20;1536.00;;;;;;5089735;28;20059;-70
2021/03/06 04:00:20;;;;;;;25.30;12.38;;;179.20;1561.60;;;;;;5073998;28;20071;-70
2021/03/06 04:02:47;;;;;;;42.70;19.15;;;179.20;1561.60;;;;;;5073991;28;20021;-70
2021/03/06 04:05:14;;;;;;;41.30;18.73;;;179.30;1536.00;;;;;;5073555;28;20069;-71
2021/03/06 04:07:52;;;;;;;35.13;17.40;;;179.20;1536.00;;;;;;5088915;28;20115;-70
2021/03/06 04:10:20;;;;;;;29.52;15.25;;;154.50;1536.00;;;;;;5073578;28;20029;-70
2021/03/06 04:12:46;;;;;;;27.95;13.45;;;179.20;1561.60;;;;;;5073683;28;20249;-70
2021/03/06 04:15:14;;;;;;;28.23;13.57;;;179.20;1536.00;;;;;;5073599;28;20498;-70
2021/03/06 04:17:40;;;;;;;29.52;13.32;;;179.20;1510.40;;;;;;5072546;28;20068;-70
2021/03/06 04:20:08;;;;;;;16.85;9.10;;;154.50;1536.00;;;;;;5073389;28;20036;-70
2021/03/06 04:22:34;;;;;;;19.90;9.50;;;154.50;1536.00;;;;;;5073798;28;20035;-70
2021/03/06 04:25:00;;;;;;;14.10;7.30;;;179.20;1536.00;;;;;;5073648;28;20024;-70
2021/03/06 04:27:26;;;;;;;10.57;6.93;;;154.50;1536.00;;;;;;5073741;28;20032;-70
2021/03/06 04:29:52;;;;;;;11.10;7.20;;;154.40;1561.60;;;;;;5073582;28;20035;-70
2021/03/06 04:32:18;;;;;;;21.20;9.75;;;154.40;1561.60;;;;;;5073444;28;20025;-70
2021/03/06 04:34:44;;;;;;;25.15;11.82;;;154.40;1536.00;;;;;;5089052;28;20141;-70
2021/03/06 04:37:10;;;;;;;43.50;19.10;;;154.40;1561.60;;;;;;5073452;28;20025;-70
2021/03/06 04:39:35;;;;;;;47.30;22.75;;;154.40;1561.60;;;;;;5072278;28;20473;-71
2021/03/06 04:42:01;;;;;;;48.17;21.45;;;154.40;1536.00;;;;;;5072932;28;20031;-70
2021/03/06 04:44:27;;;;;;;32.13;16.55;;;154.40;1536.00;;;;;;5073203;28;20539;-70
2021/03/06 04:46:53;;;;;;;24.08;11.82;;;154.40;1536.00;;;;;;5073389;28;20028;-70
2021/03/06 04:49:19;;;;;;;16.88;8.10;;;154.40;1536.00;;;;;;5073174;28;20020;-70
2021/03/06 04:51:44;;;;;;;13.68;5.55;;;154.30;1536.00;;;;;;5088838;28;20039;-70
2021/03/06 04:54:10;;;;;;;7.85;5.15;;;154.30;1536.00;;;;;;5072924;28;20025;-70
2021/03/06 04:56:36;;;;;;;8.35;6.18;;;154.40;1510.40;;;;;;5072951;28;20552;-70
2021/03/06 04:59:02;;;;;;;12.52;5.90;;;154.30;1484.80;;;;;;5072755;28;20078;-70
2021/03/06 05:01:27;;;;;;;8.13;5.68;;;154.40;1484.80;;;;;;5072752;28;20427;-70
2021/03/06 05:03:53;;;;;;;10.48;5.72;;;154.30;1484.80;;;;;;5071352;28;20070;-70
2021/03/06 05:06:19;;;;;;;10.60;5.07;;;154.30;1510.40;;;;;;5072505;28;20399;-70
2021/03/06 05:08:44;;;;;;;10.65;5.75;;;154.30;1484.80;;;;;;5072642;28;20032;-70
2021/03/06 05:11:10;;;;;;;9.50;5.47;;;154.30;1484.80;;;;;;5072850;28;20389;-70
2021/03/06 05:13:37;;;;;;;11.50;6.47;;;154.30;1510.40;;;;;;5072511;28;20473;-70
2021/03/06 05:16:04;;;;;;;12.10;5.70;;;154.30;1484.80;;;;;;5072719;28;20048;-70
2021/03/06 05:18:31;;;;;;;8.32;5.07;;;154.30;1484.80;;;;;;5088312;28;20032;-70
2021/03/06 05:20:58;;;;;;;8.05;5.10;;;154.30;1484.80;;;;;;5088165;28;20033;-72
2021/03/06 05:23:23;;;;;;;10.05;5.47;;;154.30;1484.80;;;;;;5072648;28;20028;-73
2021/03/06 05:25:49;;;;;;;11.82;6.35;;;154.20;1510.40;;;;;;5071254;28;20036;-73
2021/03/06 05:28:22;;;;;;;14.88;5.60;;;154.30;1459.20;;;;;;5072604;28;20384;-73
2021/03/06 05:30:48;;;;;;;15.02;6.95;;;154.20;1484.80;;;;;;5088077;28;20033;-73
2021/03/06 05:33:16;;;;;;;12.77;6.90;;;154.30;1484.80;;;;;;5072694;28;20028;-73
2021/03/06 05:35:42;;;;;;;10.18;5.47;;;154.30;1459.20;;;;;;5072423;28;20032;-73
2021/03/06 05:38:08;;;;;;;9.48;4.80;;;154.20;1484.80;;;;;;5072489;28;20021;-73
2021/03/06 05:40:43;;;;;;;10.70;5.97;;;154.10;1484.80;;;;;;5072391;28;20020;-70
2021/03/06 05:43:09;;;;;;;8.90;5.82;;;154.20;1484.80;;;;;;5072206;28;20075;-70
2021/03/06 05:45:35;;;;;;;13.02;7.15;;;154.20;1484.80;;;;;;5072612;28;20029;-70
2021/03/06 05:48:01;;;;;;;15.90;6.35;;;154.20;1484.80;;;;;;5088001;28;20511;-70
2021/03/06 05:50:28;;;;;;;13.32;5.88;;;154.20;1484.80;;;;;;5070926;28;20086;-70
2021/03/06 05:52:58;;;;;;;15.40;6.97;;;154.20;1484.80;;;;;;5071075;28;20024;-70
2021/03/06 05:55:26;;;;;;;13.02;6.88;;;154.20;1459.20;;;;;;5087679;28;20033;-70
2021/03/06 05:57:56;;;;;;;13.95;8.65;;;154.20;1459.20;;;;;;5087849;28;20037;-71
2021/03/06 06:00:23;;;;;;;16.17;8.80;;;154.20;1484.80;;;;;;5072296;28;20016;-70
2021/03/06 06:02:53;;;;;;;17.85;9.15;;;154.20;1459.20;;;;;;5072194;28;20480;-70
2021/03/06 06:05:19;;;;;;;12.50;7.72;;;154.20;1484.80;;;;;;5072363;28;20064;-73
2021/03/06 06:07:46;;;;;;;20.30;7.38;;;154.30;1484.80;;;;;;5072120;28;20033;-73
2021/03/06 06:10:13;;;;;;;15.10;7.53;;;154.20;1459.20;;;;;;5088015;28;20067;-73
2021/03/06 06:12:45;;;;;;;17.60;6.75;;;154.30;1459.20;;;;;;5071980;28;20785;-73
2021/03/06 06:15:12;;;;;;;11.45;6.47;;;154.30;1433.60;;;;;;5087526;28;20118;-73
2021/03/06 06:17:38;;;;;;;9.70;6.63;;;154.40;1459.20;;;;;;5090780;28;20028;-73
2021/03/06 06:20:05;;;;;;;22.88;9.77;;;154.40;1433.60;;;;;;5092377;28;20027;-73
2021/03/06 06:22:31;;;;;;;18.95;9.93;;;154.40;1459.20;;;;;;5092046;28;20472;-73
2021/03/06 06:24:57;;;;;;;17.83;11.07;;;154.50;1408.00;;;;;;5091053;28;20044;-73
2021/03/06 06:27:24;;;;;;;14.07;10.38;;;154.40;1408.00;;;;;;5092422;28;20107;-73
2021/03/06 06:29:51;;;;;;;16.73;10.45;;;154.50;1433.60;;;;;;5092147;28;20024;-73
2021/03/06 06:32:19;;;;;;;13.82;7.05;;;154.50;1433.60;;;;;;5090782;28;20032;-73
2021/03/06 06:35:05;;;;;;;15.55;7.72;;;154.50;1459.20;;;;;;5090757;28;20032;-73
2021/03/06 06:37:31;;;;;;;16.70;8.13;;;154.50;1408.00;;;;;;5090897;28;20032;-74
2021/03/06 06:39:59;;;;;;;20.75;10.60;;;154.50;1408.00;;;;;;5090695;28;20111;-73
2021/03/06 06:42:35;;;;;;;22.77;12.20;;;154.50;1408.00;;;;;;5094755;28;20028;-72
2021/03/06 06:45:04;;;;;;;35.15;17.70;;;179.20;1382.40;;;;;;5095935;28;20409;-71
2021/03/06 06:47:35;;;;;;;34.65;18.20;;;179.20;1382.40;;;;;;5094320;28;20028;-70
2021/03/06 06:50:00;;;;;;;;;;;179.30;1382.40;;;;;;5096300;28;20032;-70
2021/03/06 06:52:44;;;;;;;38.15;17.90;;;179.30;1382.40;;;;;;5095816;28;19952;-71
2021/03/06 06:55:12;;;;;;;71.30;32.20;;;179.30;1382.40;;;;;;5095011;28;20024;-71
2021/03/06 06:57:52;;;;;;;100.72;38.67;;;179.40;1382.40;;;;;;5094208;28;20073;-70
2021/03/06 07:00:19;;;;;;;85.32;36.47;;;179.40;1356.80;;;;;;5095883;28;20020;-71
2021/03/06 07:02:58;;;;;;;50.55;21.00;;;179.50;1356.80;;;;;;5095440;28;20050;-71
2021/03/06 07:05:30;;;;;;;39.13;16.02;;;179.40;1331.20;;;;;;5094280;28;20404;-72
2021/03/06 07:07:57;;;;;;;27.48;14.48;;;179.40;1305.60;;;;;;5095597;28;20126;-72
2021/03/06 07:10:23;;;;;;;40.72;19.23;;;179.50;1305.60;;;;;;5094574;28;20028;-74
2021/03/06 07:13:03;;;;;;;21.63;12.25;;;179.50;1331.20;;;;;;5094684;28;20053;-72
2021/03/06 07:15:31;;;;;;;29.52;15.60;;;179.50;1356.80;;;;;;5094485;28;20024;-72
2021/03/06 07:17:59;;;;;;;29.50;14.40;;;179.60;1331.20;;;;;;5093675;28;20028;-72
2021/03/06 07:20:30;;;;;;;15.05;9.38;;;179.60;1305.60;;;;;;5094380;28;20089;-73
2021/03/06 07:22:58;;;;;;;19.83;9.20;;;179.60;1305.60;;;;;;5092225;28;20197;-72
2021/03/06 07:25:26;;;;;;;22.80;11.95;;;179.60;1305.60;;;;;;5094355;28;20036;-72
2021/03/06 07:27:52;;;;;;;26.70;13.10;;;179.60;1305.60;;;;;;5095305;28;20028;-73
2021/03/06 07:30:18;;;;;;;28.23;10.73;;;179.70;1356.80;;;;;;5095528;28;20032;-72
2021/03/06 07:32:46;;;;;;;15.25;7.72;;;179.70;1331.20;;;;;;5094329;28;20111;-73
2021/03/06 07:35:14;;;;;;;15.90;9.38;;;179.80;1305.60;;;;;;5094352;28;20060;-73
2021/03/06 07:37:41;;;;;;;9.57;7.47;;;179.80;1305.60;;;;;;5094924;28;20110;-71
2021/03/06 07:40:12;;;;;;;14.20;10.13;;;179.80;1280.00;;;;;;5093754;28;20113;-72
2021/03/06 07:42:44;;;;;;;14.18;9.05;;;179.90;1280.00;;;;;;5093971;28;20107;-73
2021/03/06 07:45:13;;;;;;;12.13;6.68;;;179.90;1280.00;;;;;;5093746;28;20160;-72
2021/03/06 07:47:40;;;;;;;11.80;7.60;;;179.90;1254.40;;;;;;5079232;28;20036;-73
2021/03/06 07:50:10;;;;;;;15.45;9.45;;;179.90;1254.40;;;;;;5075411;28;20032;-74
2021/03/06 07:52:38;;;;;;;23.80;11.48;;;179.90;1228.80;;;;;;5074279;28;20079;-74
2021/03/06 07:55:09;;;;;;;20.92;11.25;;;179.90;1254.40;;;;;;5073654;28;20016;-72
2021/03/06 07:58:16;;;;;;;20.70;9.68;;;180.00;1228.80;;;;;;5074782;28;20020;-72
2021/03/06 08:00:48;;;;;;;15.85;8.52;;;180.10;1254.40;;;;;;5032940;28;20030;-74
2021/03/06 08:03:26;;;;;;;14.90;7.75;;;180.10;1254.40;;;;;;5016750;28;20025;-75
2021/03/06 08:05:58;;;;;;;14.73;7.85;;;180.10;1228.80;;;;;;5058053;28;20050;-75
2021/03/06 08:08:33;;;;;;;13.75;7.03;;;180.10;1254.40;;;;;;5074721;28;20074;-78
2021/03/06 08:11:09;;;;;;;16.95;6.15;;;180.00;1228.80;;;;;;5073514;28;20024;-78
2021/03/06 08:13:48;;;;;;;13.40;6.07;;;204.80;1254.40;;;;;;5073854;28;20092;-73
2021/03/06 08:16:25;;;;;;;11.05;5.40;;;204.80;1228.80;;;;;;5074675;28;20032;-74
2021/03/06 08:19:00;;;;;;;14.25;6.03;;;204.90;1228.80;;;;;;5073651;28;20392;-73
2021/03/06 08:21:27;;;;;;;9.27;5.20;;;205.00;1228.80;;;;;;5072923;28;20392;-73
2021/03/06 08:24:14;;;;;;;12.98;6.15;;;205.10;1203.20;;;;;;5074221;28;20495;-73
2021/03/06 08:26:43;;;;;;;11.48;6.13;;;205.20;1203.20;;;;;;5074289;28;20499;-73
2021/03/06 08:29:21;;;;;;;14.75;8.15;;;205.10;1177.60;;;;;;5074620;28;20024;-72
2021/03/06 08:32:03;;;;;;;17.50;7.85;;;205.20;1203.20;;;;;;5072607;28;20483;-75
2021/03/06 08:34:37;;;;;;;10.98;6.03;;;205.30;1152.00;;;;;;5074027;28;20029;-74
2021/03/06 08:39:41;;;;;;;10.45;6.40;;;205.10;1152.00;;;;;;5074293;28;20493;-72
2021/03/06 08:42:07;;;;;;;9.85;6.07;;;205.20;1177.60;;;;;;5073839;28;20429;-73
2021/03/06 08:44:33;;;;;;;10.57;4.65;;;205.30;1152.00;;;;;;5073508;28;20024;-73
2021/03/06 08:47:00;;;;;;;6.97;4.20;;;205.40;1126.40;;;;;;5073818;28;20032;-73
2021/03/06 08:49:25;;;;;;;14.77;6.03;;;205.40;1100.80;;;;;;5073706;28;20058;-73
2021/03/06 08:51:53;;;;;;;13.32;8.07;;;205.40;1100.80;;;;;;5072750;28;20109;-73
2021/03/06 08:54:21;;;;;;;11.55;6.50;;;205.50;1126.40;;;;;;5073778;28;20025;-73
2021/03/06 08:56:47;;;;;;;10.32;6.28;;;205.50;1126.40;;;;;;5072503;28;20123;-72
2021/03/06 08:59:13;;;;;;;15.18;7.22;;;205.60;1126.40;;;;;;5072139;28;20431;-74
2021/03/06 09:01:39;;;;;;;8.77;4.13;;;205.70;1100.80;;;;;;5072312;28;20031;-78
2021/03/06 09:04:05;;;;;;;6.43;4.25;;;205.60;1075.20;;;;;;5073675;28;20046;-76
2021/03/06 09:06:35;;;;;;;10.02;5.25;;;205.60;1024.00;;;;;;5073335;28;20508;-78
2021/03/06 09:09:02;;;;;;;7.78;4.60;;;205.60;1024.00;;;;;;5073680;28;20528;-75
2021/03/06 09:11:29;;;;;;;12.63;4.95;;;205.60;1024.00;;;;;;5073632;28;20031;-74
2021/03/06 09:13:55;;;;;;;11.10;4.93;;;230.40;1024.00;;;;;;5073809;28;20023;-74
2021/03/06 09:16:21;;;;;;;7.13;3.88;;;230.40;998.40;;;;;;5072061;28;20487;-74
2021/03/06 09:18:47;;;;;;;6.03;3.88;;;230.40;998.40;;;;;;5091957;28;20070;-74
2021/03/06 09:21:23;;;;;;;9.52;5.13;;;230.40;1024.00;;;;;;5093353;28;20035;-74
2021/03/06 09:23:51;;;;;;;15.10;7.32;;;230.40;998.40;;;;;;5091639;28;20089;-74
2021/03/06 09:26:19;;;;;;;41.83;22.08;;;230.40;1024.00;;;;;;5092120;28;20399;-74
2021/03/06 09:28:47;;;;;;;10.27;5.80;;;230.40;1024.00;;;;;;5093505;28;20024;-74
2021/03/06 09:31:30;;;;;;;17.55;9.07;;;230.40;998.40;;;;;;5093099;28;20016;-74
2021/03/06 09:33:56;;;;;;;9.60;6.68;;;230.40;972.80;;;;;;5092028;28;20048;-74
2021/03/06 09:36:23;;;;;;;7.80;5.28;;;230.50;998.40;;;;;;5091596;28;20028;-74
2021/03/06 09:38:53;;;;;;;8.82;4.90;;;230.50;998.40;;;;;;5092180;28;20437;-74
2021/03/06 09:41:21;;;;;;;8.60;4.55;;;230.70;972.80;;;;;;5093279;28;20022;-74
2021/03/06 09:43:55;;;;;;;4.25;3.35;;;230.70;972.80;;;;;;5093516;28;20513;-74
2021/03/06 09:46:32;;;;;;;13.52;6.28;;;230.60;947.20;;;;;;5093527;28;20035;-74
2021/03/06 09:49:11;;;;;;;11.63;6.50;;;230.70;972.80;;;;;;5093451;28;20085;-73
2021/03/06 09:51:50;;;;;;;12.73;5.88;;;230.80;972.80;;;;;;5093109;28;20472;-73
2021/03/06 09:54:18;;;;;;;7.80;3.95;;;230.80;972.80;;;;;;5092213;28;20038;-74
2021/03/06 09:56:55;;;;;;;10.85;5.63;;;230.80;947.20;;;;;;5092237;28;20517;-74
2021/03/06 09:59:23;;;;;;;8.75;5.13;;;230.90;972.80;;;;;;5093386;28;20025;-74
2021/03/06 10:01:49;;;;;;;15.20;4.80;;;231.00;972.80;;;;;;5091917;28;20028;-74
2021/03/06 10:04:23;;;;;;;9.32;4.80;;;230.90;921.60;;;;;;5093235;28;20031;-74
2021/03/06 10:06:54;;;;;;;5.68;3.35;;;230.90;947.20;;;;;;5092911;28;20048;-74
2021/03/06 10:09:20;;;;;;;;;;;230.90;921.60;;;;;;5093167;28;20062;-73
2021/03/06 10:11:51;;;;;;;10.07;4.68;;;231.00;947.20;;;;;;5091254;28;19908;-74
2021/03/06 10:14:23;;;;;;;11.68;5.47;;;231.00;947.20;;;;;;5091493;28;20500;-74
2021/03/06 10:16:51;;;;;;;7.57;4.40;;;231.10;947.20;;;;;;5093909;28;20044;-74
2021/03/06 10:19:19;;;;;;;11.15;5.28;;;231.10;921.60;;;;;;5095398;28;20036;-74
2021/03/06 10:22:09;;;;;;;8.40;4.00;;;231.10;896.00;;;;;;5095310;28;20035;-74
2021/03/06 10:25:02;;;;;;;5.88;3.75;;;231.20;896.00;;;;;;5096229;28;20051;-74
2021/03/06 10:27:34;;;;;;;8.43;4.85;;;231.20;896.00;;;;;;5095743;28;20048;-74
2021/03/06 10:30:19;;;;;;;8.77;3.83;;;231.30;896.00;;;;;;5096367;28;20052;-73
2021/03/06 10:32:47;;;;;;;6.78;4.03;;;231.20;921.60;;;;;;5095354;28;20404;-74
2021/03/06 10:35:46;;;;;;;8.98;4.30;;;231.20;947.20;;;;;;5096949;28;20024;-75
2021/03/06 10:38:23;;;;;;;13.45;6.18;;;231.30;947.20;;;;;;5095491;28;20514;-74
2021/03/06 10:40:52;;;;;;;18.27;7.85;;;231.30;921.60;;;;;;5096845;28;20032;-74
2021/03/06 10:43:40;;;;;;;11.75;6.60;;;256.00;921.60;;;;;;5095829;28;20028;-75
2021/03/06 10:46:17;;;;;;;7.65;4.00;;;256.10;896.00;;;;;;5095356;28;20024;-74
2021/03/06 10:48:45;;;;;;;10.60;4.75;;;256.10;921.60;;;;;;5095452;28;20028;-74
2021/03/06 10:51:11;;;;;;;6.28;3.83;;;256.20;921.60;;;;;;5096428;28;20375;-74
2021/03/06 10:53:37;;;;;;;13.90;7.18;;;256.20;921.60;;;;;;5095229;28;20024;-75
2021/03/06 10:56:06;;;;;;;13.18;5.70;;;256.30;947.20;;;;;;5095567;28;20115;-74
2021/03/06 10:58:42;;;;;;;10.70;5.65;;;256.30;921.60;;;;;;5096698;28;20099;-75
2021/03/06 11:01:09;;;;;;;8.85;4.70;;;256.50;947.20;;;;;;5096430;28;20024;-75
2021/03/06 11:03:47;;;;;;;7.68;4.10;;;256.50;921.60;;;;;;5096467;28;20012;-74
2021/03/06 11:06:13;;;;;;;21.65;9.30;;;256.30;819.20;;;;;;5094972;28;20077;-74
2021/03/06 11:08:41;;;;;;;21.52;8.85;;;256.10;844.80;;;;;;5095139;28;20031;-74
2021/03/06 11:11:08;;;;;;;14.23;7.65;;;256.10;870.40;;;;;;5096277;28;20026;-75
2021/03/06 11:13:46;;;;;;;30.23;16.83;;;256.20;896.00;;;;;;5094974;28;20422;-74
2021/03/06 11:16:14;;;;;;;26.55;12.75;;;256.40;896.00;;;;;;5096203;28;20472;-74
2021/03/06 11:18:44;;;;;;;17.52;7.35;;;256.40;844.80;;;;;;5096207;28;20476;-74
2021/03/06 11:21:13;;;;;;;21.13;11.60;;;256.40;819.20;;;;;;5094770;28;20027;-74
2021/03/06 11:23:40;;;;;;;33.67;16.27;;;256.30;844.80;;;;;;5095898;28;20024;-74
2021/03/06 11:26:07;;;;;;;17.60;8.55;;;256.20;844.80;;;;;;5094694;28;20042;-75
2021/03/06 11:28:33;;;;;;;38.72;16.85;;;256.10;844.80;;;;;;5094470;28;20047;-74
2021/03/06 11:31:04;;;;;;;19.73;8.82;;;256.30;844.80;;;;;;5094729;28;20020;-74
2021/03/06 11:33:30;;;;;;;9.18;5.80;;;256.50;870.40;;;;;;5095914;28;20043;-75
2021/03/06 11:35:56;;;;;;;9.38;5.18;;;256.30;819.20;;;;;;5095431;28;20387;-74
2021/03/06 11:38:23;;;;;;;12.90;6.40;;;256.30;819.20;;;;;;5095754;28;20063;-74
2021/03/06 11:40:51;;;;;;;13.43;8.35;;;256.40;870.40;;;;;;5094497;28;20043;-75
2021/03/06 11:43:18;;;;;;;10.25;5.53;;;256.50;844.80;;;;;;5094688;28;20036;-74
2021/03/06 11:45:44;;;;;;;7.15;4.07;;;256.70;819.20;;;;;;5094426;28;20023;-75
2021/03/06 11:48:10;;;;;;;4.57;3.85;;;256.70;819.20;;;;;;5095714;28;20031;-75
2021/03/06 11:50:42;;;;;;;8.05;4.85;;;256.80;819.20;;;;;;5095581;28;20034;-74
2021/03/06 11:53:08;;;;;;;7.63;4.53;;;281.60;844.80;;;;;;5095403;28;20480;-74
2021/03/06 11:55:34;;;;;;;8.13;5.35;;;281.70;819.20;;;;;;5093534;28;20028;-74
2021/03/06 11:58:00;;;;;;;8.70;5.10;;;281.80;819.20;;;;;;5094963;28;20020;-74
2021/03/06 12:00:27;;;;;;;6.97;4.13;;;281.80;768.00;;;;;;5095012;28;20098;-74
2021/03/06 12:02:53;;;;;;;14.90;5.85;;;281.90;844.80;;;;;;5093892;28;20059;-74
2021/03/06 12:05:19;;;;;;;9.57;4.15;;;281.90;819.20;;;;;;5095028;28;20043;-75
2021/03/06 12:07:47;;;;;;;9.10;4.65;;;281.70;819.20;;;;;;5095108;28;20039;-75
2021/03/06 12:10:15;;;;;;;9.07;5.50;;;281.60;819.20;;;;;;5093804;28;20020;-74
2021/03/06 12:12:43;;;;;;;10.82;5.95;;;256.80;768.00;;;;;;5093785;28;20024;-74
2021/03/06 12:15:11;;;;;;;13.57;9.35;;;256.70;768.00;;;;;;5094909;28;20027;-74
2021/03/06 12:17:37;;;;;;;38.10;22.33;;;256.90;793.60;;;;;;5095006;28;20384;-74
2021/03/06 12:20:04;;;;;;;26.27;16.48;;;281.70;870.40;;;;;;5094815;28;20464;-74
2021/03/06 12:22:30;;;;;;;32.05;21.55;;;281.90;819.20;;;;;;5094820;28;20020;-74
2021/03/06 12:24:57;;;;;;;31.48;18.23;;;282.00;844.80;;;;;;5094748;28;20077;-74
2021/03/06 12:27:23;;;;;;;9.93;5.60;;;282.30;844.80;;;;;;5093113;28;20533;-74